Metar z pełnej godziny Komunikat METAR ze strony awiacja.imgw.pl Metar G00 EPLB METAR EPLB 171200Z 34005KT 9999 FEW047 29/18 Q1018 =